Terminal Aerodrome Forecast
Issued by NWS Shreveport, LA

Home | Current Version | Previous Version | Text Only | Print | Product List | Glossary On
Versions: 1 2 3 4 5 6 7 8 9 10 11 12 13 14 15 16 17 18 19 20 21 22 23
000
FTUS44 KSHV 291200 AAA
TAFTYR
TAF AMD
KTYR 291200Z 2912/3012 36004KT 6SM BR OVC003
      TEMPO 2912/2914 2SM BR
     FM291600 03005KT P6SM BKN025
     FM291800 09004KT P6SM VCTS OVC035CB
      TEMPO 2921/2924 -TSRA BKN007 OVC025CB
     FM300100 07005KT 5SM BR VCSH BKN015=

USA.gov is the U.S. government's official web portal to all federal, state and local government web resources and services.